createdAt,value
2018-07-08T00:01:48.692Z,11.12
2018-07-08T00:04:17.767Z,10.15
2018-07-08T00:06:46.826Z,11.22
2018-07-08T00:09:16.591Z,10.23
2018-07-08T00:11:45.769Z,10.65
2018-07-08T00:14:14.928Z,10.32
2018-07-08T00:16:44.307Z,10.63
2018-07-08T00:19:13.274Z,11.70
2018-07-08T00:21:42.344Z,10.65
2018-07-08T00:24:11.507Z,11.33
2018-07-08T00:26:40.555Z,11.18
2018-07-08T00:29:09.662Z,11.18
2018-07-08T00:31:39.082Z,10.85
2018-07-08T00:34:08.135Z,11.38
2018-07-08T00:36:37.247Z,10.50
2018-07-08T00:39:08.259Z,12.95
2018-07-08T00:41:37.705Z,10.32
2018-07-08T00:44:07.556Z,10.63
2018-07-08T00:46:37.019Z,10.50
2018-07-08T00:49:06.311Z,11.18
2018-07-08T00:51:35.256Z,10.88
2018-07-08T00:54:04.469Z,9.90
2018-07-08T00:56:33.500Z,10.48
2018-07-08T00:59:02.588Z,10.72
2018-07-08T01:01:32.029Z,10.55
2018-07-08T01:04:01.213Z,9.68
2018-07-08T01:06:30.324Z,9.93
2018-07-08T01:08:59.426Z,10.55
2018-07-08T01:11:28.419Z,11.15
2018-07-08T01:13:57.483Z,10.00
2018-07-08T01:16:26.799Z,10.75
2018-07-08T01:18:55.799Z,9.85
2018-07-08T01:21:24.867Z,10.25
2018-07-08T01:23:54.027Z,10.70
2018-07-08T01:26:23.119Z,11.38
2018-07-08T01:28:52.337Z,11.20
2018-07-08T01:31:21.768Z,9.70
2018-07-08T01:33:50.489Z,10.25
2018-07-08T01:36:19.543Z,10.93
2018-07-08T01:38:49.006Z,9.75
2018-07-08T01:41:18.180Z,10.40
2018-07-08T01:43:48.358Z,10.43
2018-07-08T01:46:17.334Z,10.80
2018-07-08T01:48:47.000Z,11.10
2018-07-08T01:51:16.300Z,11.55
2018-07-08T01:53:46.303Z,10.60
2018-07-08T01:56:15.206Z,11.05
2018-07-08T01:58:44.192Z,10.95
2018-07-08T02:01:13.814Z,12.18
2018-07-08T02:03:42.795Z,12.68
2018-07-08T02:06:11.906Z,12.35
2018-07-08T02:08:41.516Z,12.65
2018-07-08T02:11:10.392Z,12.98
2018-07-08T02:13:39.658Z,13.85
2018-07-08T02:16:09.246Z,13.48
2018-07-08T02:18:38.108Z,14.10
2018-07-08T02:21:07.258Z,13.60
2018-07-08T02:23:36.823Z,13.28
2018-07-08T02:26:06.515Z,11.97
2018-07-08T02:28:35.574Z,14.05
2018-07-08T02:31:05.085Z,13.10
2018-07-08T02:33:34.424Z,13.75
2018-07-08T02:36:03.826Z,12.78
2018-07-08T02:38:33.550Z,12.70
2018-07-08T02:41:02.401Z,13.53
2018-07-08T02:43:31.423Z,13.88
2018-07-08T02:46:00.902Z,14.40
2018-07-08T02:48:30.191Z,12.58
2018-07-08T02:50:59.244Z,14.18
2018-07-08T02:53:28.364Z,13.55
2018-07-08T02:55:57.307Z,13.00
2018-07-08T02:58:26.364Z,12.68
2018-07-08T03:00:55.868Z,14.33
2018-07-08T03:03:24.753Z,12.40
2018-07-08T03:05:53.650Z,13.38
2018-07-08T03:08:22.934Z,13.15
2018-07-08T03:10:52.028Z,12.65
2018-07-08T03:13:20.970Z,13.93
2018-07-08T03:15:50.326Z,13.58
2018-07-08T03:18:19.458Z,13.68
2018-07-08T03:20:48.657Z,14.07
2018-07-08T03:23:17.715Z,15.35
2018-07-08T03:25:46.761Z,15.58
2018-07-08T03:28:15.959Z,15.55
2018-07-08T03:30:45.358Z,13.68
2018-07-08T03:33:14.547Z,14.73
2018-07-08T03:35:44.263Z,15.08
2018-07-08T03:38:13.472Z,15.08
2018-07-08T03:40:42.518Z,14.63
2018-07-08T03:43:11.562Z,13.88
2018-07-08T03:45:41.323Z,13.75
2018-07-08T03:48:10.364Z,13.58
2018-07-08T03:50:40.314Z,13.85
2018-07-08T03:53:09.767Z,11.75
2018-07-08T03:55:39.586Z,12.55
2018-07-08T03:58:09.212Z,13.25
2018-07-08T04:00:38.438Z,12.20
2018-07-08T04:03:07.527Z,11.55
2018-07-08T04:05:36.550Z,10.78
2018-07-08T04:08:06.047Z,12.43
2018-07-08T04:10:35.283Z,10.68
2018-07-08T04:13:04.428Z,11.15
2018-07-08T04:15:34.059Z,10.70
2018-07-08T04:18:08.564Z,12.13
2018-07-08T04:20:39.619Z,11.93
2018-07-08T04:23:10.336Z,12.37
2018-07-08T04:25:40.463Z,13.78
2018-07-08T04:28:09.748Z,12.93
2018-07-08T04:30:39.046Z,13.32
2018-07-08T04:33:08.661Z,13.25
2018-07-08T04:35:39.390Z,13.20
2018-07-08T04:38:08.591Z,12.43
2018-07-08T04:40:38.004Z,13.70
2018-07-08T04:43:07.261Z,12.60
2018-07-08T04:45:36.492Z,13.43
2018-07-08T04:48:06.091Z,12.85
2018-07-08T04:50:34.747Z,13.55
2018-07-08T04:53:03.871Z,11.65
2018-07-08T04:55:33.631Z,14.18
2018-07-08T04:58:03.158Z,14.40
2018-07-08T05:00:32.222Z,14.47
2018-07-08T05:03:01.695Z,12.98
2018-07-08T05:05:30.626Z,14.43
2018-07-08T05:08:01.427Z,14.95
2018-07-08T05:10:30.888Z,15.13
2018-07-08T05:13:00.683Z,14.83
2018-07-08T05:15:29.944Z,14.70
2018-07-08T05:17:59.782Z,14.70
2018-07-08T05:20:28.996Z,13.40
2018-07-08T05:22:58.171Z,13.60
2018-07-08T05:25:27.798Z,14.18
2018-07-08T05:27:56.889Z,14.40
2018-07-08T05:30:25.935Z,13.80
2018-07-08T05:32:55.319Z,15.38
2018-07-08T05:35:24.742Z,15.48
2018-07-08T05:37:54.039Z,16.30
2018-07-08T05:40:23.762Z,15.15
2018-07-08T05:42:53.256Z,13.80
2018-07-08T05:45:22.503Z,16.20
2018-07-08T05:47:51.791Z,16.57
2018-07-08T05:50:21.162Z,14.70
2018-07-08T05:52:50.178Z,15.85
2018-07-08T05:55:19.486Z,15.48
2018-07-08T05:57:48.308Z,14.45
2018-07-08T06:00:17.451Z,14.90
2018-07-08T06:02:46.839Z,15.32
2018-07-08T06:05:15.947Z,15.75
2018-07-08T06:07:44.968Z,14.60
2018-07-08T06:10:14.422Z,13.38
2018-07-08T06:12:43.533Z,18.82
2018-07-08T06:15:12.756Z,13.38
2018-07-08T06:17:41.734Z,14.35
2018-07-08T06:20:12.055Z,15.70
2018-07-08T06:22:41.303Z,14.95
2018-07-08T06:25:10.978Z,13.78
2018-07-08T06:27:40.032Z,14.05
2018-07-08T06:30:09.282Z,15.60
2018-07-08T06:32:38.409Z,15.70
2018-07-08T06:35:07.417Z,14.83
2018-07-08T06:37:36.500Z,13.55
2018-07-08T06:40:05.495Z,12.93
2018-07-08T06:42:34.521Z,16.15
2018-07-08T06:45:03.610Z,15.05
2018-07-08T06:47:32.956Z,13.35
2018-07-08T06:50:02.599Z,14.50
2018-07-08T06:52:32.574Z,14.60
2018-07-08T06:55:02.118Z,13.55
2018-07-08T06:57:32.631Z,14.83
2018-07-08T07:00:02.122Z,14.80
2018-07-08T07:02:31.996Z,15.32
2018-07-08T07:05:01.289Z,13.20
2018-07-08T07:07:30.609Z,13.08
2018-07-08T07:10:00.055Z,16.10
2018-07-08T07:12:29.314Z,13.35
2018-07-08T07:14:58.443Z,13.40
2018-07-08T07:17:28.211Z,20.00
2018-07-08T07:19:58.133Z,12.70
2018-07-08T07:22:26.946Z,12.45
2018-07-08T07:24:56.514Z,11.00
2018-07-08T07:27:25.340Z,12.63
2018-07-08T07:29:54.433Z,10.60
2018-07-08T07:32:23.617Z,13.13
2018-07-08T07:34:52.624Z,10.53
2018-07-08T07:37:21.595Z,11.40
2018-07-08T07:39:50.691Z,8.75
2018-07-08T07:42:19.714Z,8.40
2018-07-08T07:44:48.598Z,9.55
2018-07-08T07:47:17.918Z,8.68
2018-07-08T07:49:47.216Z,9.08
2018-07-08T07:52:16.216Z,7.97
2018-07-08T07:54:45.734Z,12.65
2018-07-08T07:57:14.808Z,7.80
2018-07-08T07:59:43.821Z,7.90
2018-07-08T08:02:13.316Z,9.03
2018-07-08T08:04:42.284Z,8.35
2018-07-08T08:07:11.303Z,8.23
2018-07-08T08:09:40.335Z,8.65
2018-07-08T08:12:09.541Z,8.35
2018-07-08T08:14:38.479Z,8.28
2018-07-08T08:17:07.606Z,8.63
2018-07-08T08:20:17.040Z,8.40
2018-07-08T08:22:46.343Z,8.83
2018-07-08T08:25:15.496Z,9.23
2018-07-08T08:27:44.544Z,7.80
2018-07-08T08:30:13.742Z,9.85
2018-07-08T08:32:42.956Z,12.35
2018-07-08T08:35:16.551Z,13.60
2018-07-08T08:37:49.649Z,10.85
2018-07-08T08:40:19.755Z,11.88
2018-07-08T08:42:48.746Z,12.05
2018-07-08T08:45:18.690Z,12.13
2018-07-08T08:47:48.252Z,15.85
2018-07-08T08:50:17.571Z,14.03
2018-07-08T08:52:46.580Z,9.80
2018-07-08T08:55:16.023Z,12.40
2018-07-08T08:57:44.825Z,11.38
2018-07-08T09:00:15.800Z,15.48
2018-07-08T09:02:45.608Z,10.63
2018-07-08T09:05:14.783Z,11.00
2018-07-08T09:07:44.408Z,8.33
2018-07-08T09:10:13.838Z,16.82
2018-07-08T09:12:42.903Z,9.98
2018-07-08T09:15:11.897Z,14.38
2018-07-08T09:17:40.835Z,13.58
2018-07-08T09:20:09.689Z,18.73
2018-07-08T09:22:38.452Z,18.15
2018-07-08T09:25:07.718Z,14.05
2018-07-08T09:27:36.859Z,12.07
2018-07-08T09:30:06.452Z,12.37
2018-07-08T09:32:35.435Z,15.18
2018-07-08T09:35:04.486Z,15.05
2018-07-08T09:37:34.425Z,16.75
2018-07-08T09:40:04.291Z,16.27
2018-07-08T09:42:33.462Z,15.25
2018-07-08T09:45:02.288Z,13.15
2018-07-08T09:47:31.192Z,14.23
2018-07-08T09:50:01.880Z,15.13
2018-07-08T09:52:31.075Z,13.48
2018-07-08T09:55:00.143Z,16.12
2018-07-08T09:57:29.115Z,14.15
2018-07-08T09:59:57.926Z,12.58
2018-07-08T10:02:27.248Z,9.98
2018-07-08T10:04:56.340Z,8.28
2018-07-08T10:07:25.099Z,8.25
2018-07-08T10:09:55.013Z,6.70
2018-07-08T10:12:24.891Z,7.55
2018-07-08T10:14:53.910Z,6.50
2018-07-08T10:17:23.418Z,7.10
2018-07-08T10:19:52.211Z,7.62
2018-07-08T10:22:21.246Z,7.00
2018-07-08T10:24:50.507Z,6.97
2018-07-08T10:27:39.904Z,7.10
2018-07-08T10:30:09.308Z,7.17
2018-07-08T10:32:38.487Z,7.67
2018-07-08T10:35:16.205Z,7.50
2018-07-08T10:37:45.060Z,7.75
2018-07-08T10:40:13.872Z,6.47
2018-07-08T10:42:43.391Z,6.55
2018-07-08T10:45:12.573Z,6.40
2018-07-08T10:47:41.552Z,6.75
2018-07-08T10:50:10.655Z,6.20
2018-07-08T10:52:39.463Z,7.62
2018-07-08T10:55:08.686Z,7.28
2018-07-08T10:57:37.773Z,6.75
2018-07-08T11:00:06.970Z,7.47
2018-07-08T11:02:36.045Z,7.00
2018-07-08T11:05:05.486Z,7.28
2018-07-08T11:07:34.552Z,7.12
2018-07-08T11:10:03.747Z,5.10
2018-07-08T11:12:33.030Z,4.47
2018-07-08T11:15:01.833Z,5.12
2018-07-08T11:17:30.690Z,3.77
2018-07-08T11:19:59.734Z,4.97
2018-07-08T11:22:29.367Z,5.03
2018-07-08T11:24:59.042Z,4.83
2018-07-08T11:27:28.353Z,4.97
2018-07-08T11:29:57.386Z,4.72
2018-07-08T11:32:27.343Z,4.70
2018-07-08T11:34:56.371Z,5.50
2018-07-08T11:37:25.242Z,5.42
2018-07-08T11:39:54.795Z,5.30
2018-07-08T11:42:24.152Z,4.78
2018-07-08T11:44:53.178Z,3.60
2018-07-08T11:47:21.983Z,6.03
2018-07-08T11:49:50.935Z,3.40
2018-07-08T11:52:20.055Z,4.20
2018-07-08T11:54:48.955Z,5.30
2018-07-08T11:57:17.917Z,6.53
2018-07-08T11:59:46.708Z,5.67
2018-07-08T12:02:16.355Z,5.40
2018-07-08T12:04:45.299Z,5.35
2018-07-08T12:07:14.282Z,4.90
2018-07-08T12:09:43.930Z,4.33
2018-07-08T12:12:13.368Z,3.20
2018-07-08T12:14:42.825Z,3.27
2018-07-08T12:17:12.060Z,3.75
2018-07-08T12:19:41.175Z,2.85
2018-07-08T12:22:10.465Z,3.20
2018-07-08T12:24:40.077Z,1.87
2018-07-08T12:27:09.779Z,1.60
2018-07-08T12:29:38.744Z,1.60
2018-07-08T12:32:07.830Z,1.22
2018-07-08T12:34:37.554Z,1.15
2018-07-08T12:37:06.668Z,1.72
2018-07-08T12:39:35.943Z,1.67
2018-07-08T12:42:05.287Z,0.68
2018-07-08T12:44:34.560Z,0.62
2018-07-08T12:47:03.493Z,1.50
2018-07-08T12:49:32.806Z,0.98
2018-07-08T12:52:01.570Z,1.40
2018-07-08T12:54:30.551Z,0.82
2018-07-08T12:56:59.755Z,0.60
2018-07-08T12:59:28.843Z,0.75
2018-07-08T13:01:57.964Z,0.88
2018-07-08T13:04:27.404Z,0.90
2018-07-08T13:06:56.535Z,0.88
2018-07-08T13:09:25.436Z,0.80
2018-07-08T13:11:54.771Z,1.90
2018-07-08T13:14:23.543Z,1.20
2018-07-08T13:16:52.219Z,1.42
2018-07-08T13:19:21.159Z,1.07
2018-07-08T13:21:49.886Z,0.70
2018-07-08T13:24:18.947Z,1.20
2018-07-08T13:26:48.043Z,1.27
2018-07-08T13:29:17.183Z,2.15
2018-07-08T13:31:46.094Z,1.90
2018-07-08T13:34:16.044Z,1.30
2018-07-08T13:36:44.884Z,5.30
2018-07-08T13:39:14.283Z,4.70
2018-07-08T13:41:43.299Z,8.20
2018-07-08T13:44:12.297Z,10.20
2018-07-08T13:46:43.368Z,5.15
2018-07-08T13:49:12.211Z,4.08
2018-07-08T13:51:41.628Z,5.03
2018-07-08T13:54:10.630Z,3.62
2018-07-08T13:56:40.743Z,4.25
2018-07-08T13:59:09.903Z,5.03
2018-07-08T14:01:38.993Z,9.03
2018-07-08T14:04:07.842Z,4.67
2018-07-08T14:06:37.435Z,6.75
2018-07-08T14:09:07.483Z,6.20
2018-07-08T14:11:36.561Z,6.08
2018-07-08T14:14:05.490Z,7.60
2018-07-08T14:16:34.567Z,6.75
2018-07-08T14:19:03.331Z,7.00
2018-07-08T14:21:32.766Z,8.35
2018-07-08T14:24:02.598Z,6.30
2018-07-08T14:26:31.655Z,5.37
2018-07-08T14:29:00.711Z,5.83
2018-07-08T14:31:30.511Z,6.42
2018-07-08T14:33:59.351Z,6.20
2018-07-08T14:36:28.227Z,7.05
2018-07-08T14:38:57.699Z,7.58
2018-07-08T14:41:27.159Z,7.40
2018-07-08T14:43:56.250Z,7.03
2018-07-08T14:46:25.498Z,7.70
2018-07-08T14:48:54.444Z,6.78
2018-07-08T14:51:23.539Z,7.30
2018-07-08T14:53:53.554Z,6.55
2018-07-08T14:56:22.770Z,6.05
2018-07-08T14:58:51.851Z,7.00
2018-07-08T15:01:21.914Z,6.97
2018-07-08T15:03:50.903Z,8.00
2018-07-08T15:06:19.748Z,8.70
2018-07-08T15:08:49.105Z,4.55
2018-07-08T15:11:17.745Z,10.58
2018-07-08T15:13:46.676Z,9.15
2018-07-08T15:16:15.676Z,8.40
2018-07-08T15:18:44.673Z,8.25
2018-07-08T15:21:13.453Z,8.50
2018-07-08T15:23:42.648Z,7.22
2018-07-08T15:26:11.708Z,5.70
2018-07-08T15:28:41.429Z,5.37
2018-07-08T15:31:10.878Z,4.62
2018-07-08T15:33:40.133Z,3.35
2018-07-08T15:36:09.008Z,3.47
2018-07-08T15:38:38.254Z,3.50
2018-07-08T15:41:07.423Z,3.50
2018-07-08T15:43:36.394Z,3.00
2018-07-08T15:46:05.422Z,1.10
2018-07-08T15:48:34.969Z,1.30
2018-07-08T15:51:04.546Z,0.90
2018-07-08T15:53:33.660Z,1.42
2018-07-08T15:56:03.173Z,1.75
2018-07-08T15:58:32.855Z,4.08
2018-07-08T16:01:02.915Z,5.17
2018-07-08T16:03:31.858Z,4.25
2018-07-08T16:06:01.007Z,4.62
2018-07-08T16:08:29.997Z,10.43
2018-07-08T16:10:59.840Z,11.48
2018-07-08T16:13:28.944Z,12.50
2018-07-08T16:15:58.672Z,6.55
2018-07-08T16:18:27.602Z,7.00
2018-07-08T16:20:57.377Z,7.22
2018-07-08T16:23:26.787Z,5.78
2018-07-08T16:25:55.958Z,6.65
2018-07-08T16:28:24.976Z,7.92
2018-07-08T16:30:54.609Z,7.53
2018-07-08T16:33:24.295Z,7.40
2018-07-08T16:35:56.113Z,7.72
2018-07-08T16:38:25.042Z,6.67
2018-07-08T16:40:55.491Z,5.60
2018-07-08T16:43:26.010Z,7.97
2018-07-08T16:45:54.903Z,11.00
2018-07-08T16:48:23.796Z,11.30
2018-07-08T16:50:53.327Z,18.55
2018-07-08T16:53:22.391Z,7.60
2018-07-08T16:55:51.271Z,11.20
2018-07-08T16:58:20.577Z,20.43
2018-07-08T17:00:49.996Z,19.55
2018-07-08T17:03:19.295Z,18.73
2018-07-08T17:05:48.728Z,11.60
2018-07-08T17:08:17.624Z,12.78
2018-07-08T17:10:46.715Z,13.80
2018-07-08T17:13:16.102Z,15.65
2018-07-08T17:15:44.890Z,16.32
2018-07-08T17:18:13.907Z,16.67
2018-07-08T17:20:43.304Z,18.87
2018-07-08T17:23:12.495Z,20.17
2018-07-08T17:25:41.540Z,20.80
2018-07-08T17:28:10.464Z,19.50
2018-07-08T17:30:39.470Z,20.43
2018-07-08T17:33:08.633Z,20.95
2018-07-08T17:35:38.690Z,22.17
2018-07-08T17:38:07.879Z,23.95
2018-07-08T17:40:37.062Z,26.73
2018-07-08T17:43:06.449Z,25.23
2018-07-08T17:45:35.578Z,23.20
2018-07-08T17:48:05.073Z,23.32
2018-07-08T17:50:34.090Z,24.07
2018-07-08T17:53:03.089Z,23.98
2018-07-08T17:55:32.355Z,23.35
2018-07-08T17:58:01.919Z,23.52
2018-07-08T18:00:30.678Z,20.52
2018-07-08T18:02:59.440Z,22.60
2018-07-08T18:05:29.071Z,24.82
2018-07-08T18:07:59.152Z,21.82
2018-07-08T18:10:28.095Z,20.65
2018-07-08T18:12:57.342Z,19.35
2018-07-08T18:15:26.497Z,18.48
2018-07-08T18:17:55.538Z,17.85
2018-07-08T18:20:24.770Z,20.17
2018-07-08T18:22:54.270Z,19.12
2018-07-08T18:25:23.903Z,19.45
2018-07-08T18:27:53.291Z,19.55
2018-07-08T18:30:22.145Z,20.82
2018-07-08T18:32:51.147Z,22.87
2018-07-08T18:35:20.635Z,21.20
2018-07-08T18:37:50.466Z,22.35
2018-07-08T18:40:19.407Z,22.52
2018-07-08T18:42:48.686Z,20.70
2018-07-08T18:45:17.449Z,20.57
2018-07-08T18:47:46.536Z,21.75
2018-07-08T18:50:15.604Z,20.55
2018-07-08T18:52:44.643Z,19.87
2018-07-08T18:55:13.719Z,18.95
2018-07-08T18:57:42.871Z,21.12
2018-07-08T19:00:11.694Z,24.10
2018-07-08T19:02:40.702Z,21.93
2018-07-08T19:05:10.054Z,21.60
2018-07-08T19:07:39.286Z,18.77
2018-07-08T19:10:08.279Z,16.77
2018-07-08T19:12:37.928Z,16.37
2018-07-08T19:15:07.098Z,15.98
2018-07-08T19:17:36.314Z,19.42
2018-07-08T19:20:06.083Z,14.58
2018-07-08T19:22:35.163Z,14.20
2018-07-08T19:25:04.072Z,13.35
2018-07-08T19:27:33.643Z,14.70
2018-07-08T19:30:02.831Z,14.05
2018-07-08T19:32:31.786Z,13.48
2018-07-08T19:35:01.189Z,12.40
2018-07-08T19:37:30.651Z,12.98
2018-07-08T19:39:59.727Z,13.55
2018-07-08T19:42:29.040Z,12.65
2018-07-08T19:44:58.220Z,12.95
2018-07-08T19:47:27.843Z,13.35
2018-07-08T19:49:57.354Z,12.50
2018-07-08T19:52:26.914Z,13.08
2018-07-08T19:54:55.887Z,12.18
2018-07-08T19:57:25.571Z,12.00
2018-07-08T19:59:54.714Z,11.28
2018-07-08T20:02:23.916Z,11.05
2018-07-08T20:04:52.850Z,12.68
2018-07-08T20:07:21.798Z,14.23
2018-07-08T20:09:50.918Z,12.07
2018-07-08T20:12:20.347Z,11.70
2018-07-08T20:14:49.430Z,12.73
2018-07-08T20:17:18.269Z,11.25
2018-07-08T20:19:47.683Z,11.18
2018-07-08T20:22:16.832Z,12.25
2018-07-08T20:24:45.707Z,10.70
2018-07-08T20:27:15.244Z,12.30
2018-07-08T20:29:44.362Z,11.10
2018-07-08T20:32:13.580Z,11.48
2018-07-08T20:34:42.263Z,13.28
2018-07-08T20:37:11.253Z,12.47
2018-07-08T20:39:40.197Z,12.85
2018-07-08T20:42:09.302Z,13.55
2018-07-08T20:44:38.131Z,14.03
2018-07-08T20:47:07.415Z,14.13
2018-07-08T20:49:37.535Z,13.85
2018-07-08T20:52:06.555Z,14.45
2018-07-08T20:54:35.338Z,15.55
2018-07-08T20:57:04.700Z,16.32
2018-07-08T20:59:33.583Z,16.40
2018-07-08T21:02:02.899Z,19.23
2018-07-08T21:04:32.392Z,24.90
2018-07-08T21:07:01.409Z,26.37
2018-07-08T21:09:30.331Z,23.77
2018-07-08T21:11:59.547Z,26.52
2018-07-08T21:14:28.545Z,24.82
2018-07-08T21:16:57.695Z,25.27
2018-07-08T21:19:26.839Z,24.57
2018-07-08T21:21:55.786Z,23.40
2018-07-08T21:24:25.310Z,23.80
2018-07-08T21:26:54.859Z,17.82
2018-07-08T21:29:24.212Z,17.17
2018-07-08T21:31:52.886Z,14.47
2018-07-08T21:34:22.762Z,14.23
2018-07-08T21:36:51.968Z,12.82
2018-07-08T21:39:21.123Z,13.00
2018-07-08T21:41:50.441Z,12.33
2018-07-08T21:44:19.887Z,12.53
2018-07-08T21:46:49.326Z,12.03
2018-07-08T21:49:18.613Z,11.60
2018-07-08T21:51:48.055Z,11.33
2018-07-08T21:54:17.142Z,9.43
2018-07-08T21:56:46.395Z,9.83
2018-07-08T21:59:15.434Z,9.08
2018-07-08T22:02:04.221Z,9.85
2018-07-08T22:04:33.368Z,9.73
2018-07-08T22:07:08.144Z,8.68
2018-07-08T22:09:37.227Z,8.88
2018-07-08T22:12:06.393Z,7.72
2018-07-08T22:14:35.511Z,6.80
2018-07-08T22:17:04.496Z,6.22
2018-07-08T22:19:34.121Z,7.20
2018-07-08T22:22:03.531Z,5.80
2018-07-08T22:24:32.413Z,5.25
2018-07-08T22:27:01.418Z,5.62
2018-07-08T22:29:31.567Z,5.12
2018-07-08T22:32:00.493Z,4.97
2018-07-08T22:34:29.416Z,5.00
2018-07-08T22:36:58.642Z,5.80
2018-07-08T22:39:27.723Z,5.85
2018-07-08T22:41:56.621Z,5.70
2018-07-08T22:44:26.320Z,6.40
2018-07-08T22:46:55.216Z,6.50
2018-07-08T22:49:24.183Z,6.25
2018-07-08T22:51:53.937Z,6.62
2018-07-08T22:54:22.823Z,7.28
2018-07-08T22:56:51.596Z,9.60
2018-07-08T22:59:20.914Z,10.13
2018-07-08T23:02:00.487Z,7.80
2018-07-08T23:04:30.267Z,7.00
2018-07-08T23:06:59.314Z,7.22
2018-07-08T23:09:28.411Z,7.28
2018-07-08T23:11:57.787Z,6.65
2018-07-08T23:14:26.482Z,6.53
2018-07-08T23:16:55.356Z,6.72
2018-07-08T23:19:24.827Z,6.28
2018-07-08T23:21:53.782Z,6.92
2018-07-08T23:24:23.126Z,6.72
2018-07-08T23:26:52.139Z,7.42
2018-07-08T23:29:21.242Z,6.87
2018-07-08T23:31:50.189Z,7.20
2018-07-08T23:34:19.127Z,7.20
2018-07-08T23:36:48.096Z,7.05
2018-07-08T23:39:17.203Z,9.70
2018-07-08T23:41:46.631Z,7.78
2018-07-08T23:44:15.871Z,7.37
2018-07-08T23:46:45.614Z,7.45
2018-07-08T23:49:14.636Z,7.50
2018-07-08T23:51:43.434Z,7.65
2018-07-08T23:54:12.544Z,7.62
2018-07-08T23:56:41.960Z,7.40
2018-07-08T23:59:11.002Z,8.70
